sensor_id;sensor_type;location;lat;lon;timestamp;P1;durP1;ratioP1;P2;durP2;ratioP2
9485;SDS011;4781;48.776;9.200;2023-05-02T00:00:26;5.35;;;4.10;;
9485;SDS011;4781;48.776;9.200;2023-05-02T00:02:53;7.72;;;4.40;;
9485;SDS011;4781;48.776;9.200;2023-05-02T00:05:19;5.62;;;4.37;;
9485;SDS011;4781;48.776;9.200;2023-05-02T00:07:45;5.50;;;4.40;;
9485;SDS011;4781;48.776;9.200;2023-05-02T00:10:16;6.60;;;4.50;;
9485;SDS011;4781;48.776;9.200;2023-05-02T00:12:40;6.12;;;4.55;;
9485;SDS011;4781;48.776;9.200;2023-05-02T00:15:06;6.80;;;4.37;;
9485;SDS011;4781;48.776;9.200;2023-05-02T00:17:33;6.03;;;4.45;;
9485;SDS011;4781;48.776;9.200;2023-05-02T00:19:59;5.80;;;3.95;;
9485;SDS011;4781;48.776;9.200;2023-05-02T00:22:25;6.10;;;4.62;;
9485;SDS011;4781;48.776;9.200;2023-05-02T00:24:57;6.33;;;4.05;;
9485;SDS011;4781;48.776;9.200;2023-05-02T00:27:23;6.12;;;4.45;;
9485;SDS011;4781;48.776;9.200;2023-05-02T00:29:49;5.70;;;4.20;;
9485;SDS011;4781;48.776;9.200;2023-05-02T00:32:17;6.67;;;4.20;;
9485;SDS011;4781;48.776;9.200;2023-05-02T00:34:43;5.28;;;4.20;;
9485;SDS011;4781;48.776;9.200;2023-05-02T00:37:09;6.67;;;4.60;;
9485;SDS011;4781;48.776;9.200;2023-05-02T00:39:36;5.35;;;4.50;;
9485;SDS011;4781;48.776;9.200;2023-05-02T00:42:02;5.30;;;3.90;;
9485;SDS011;4781;48.776;9.200;2023-05-02T00:44:28;6.58;;;4.05;;
9485;SDS011;4781;48.776;9.200;2023-05-02T00:46:58;5.22;;;4.20;;
9485;SDS011;4781;48.776;9.200;2023-05-02T00:49:23;6.92;;;4.53;;
9485;SDS011;4781;48.776;9.200;2023-05-02T00:51:49;6.30;;;4.50;;
9485;SDS011;4781;48.776;9.200;2023-05-02T00:54:15;6.65;;;4.50;;
9485;SDS011;4781;48.776;9.200;2023-05-02T00:56:41;5.78;;;4.10;;
9485;SDS011;4781;48.776;9.200;2023-05-02T00:59:07;5.30;;;4.15;;
9485;SDS011;4781;48.776;9.200;2023-05-02T01:01:39;6.22;;;3.90;;
9485;SDS011;4781;48.776;9.200;2023-05-02T01:10:45;5.37;;;4.10;;
9485;SDS011;4781;48.776;9.200;2023-05-02T01:13:21;6.90;;;4.37;;
9485;SDS011;4781;48.776;9.200;2023-05-02T01:15:55;6.42;;;4.20;;
9485;SDS011;4781;48.776;9.200;2023-05-02T01:18:23;6.22;;;4.53;;
9485;SDS011;4781;48.776;9.200;2023-05-02T01:20:56;7.78;;;4.90;;
9485;SDS011;4781;48.776;9.200;2023-05-02T01:31:30;8.88;;;5.25;;
9485;SDS011;4781;48.776;9.200;2023-05-02T01:33:56;5.55;;;4.50;;
9485;SDS011;4781;48.776;9.200;2023-05-02T01:36:26;7.22;;;4.97;;
9485;SDS011;4781;48.776;9.200;2023-05-02T01:38:57;7.08;;;4.55;;
9485;SDS011;4781;48.776;9.200;2023-05-02T01:41:26;6.90;;;4.58;;
9485;SDS011;4781;48.776;9.200;2023-05-02T01:43:54;6.22;;;4.83;;
9485;SDS011;4781;48.776;9.200;2023-05-02T01:46:24;7.70;;;4.78;;
9485;SDS011;4781;48.776;9.200;2023-05-02T01:48:56;6.50;;;5.03;;
9485;SDS011;4781;48.776;9.200;2023-05-02T01:51:27;6.83;;;5.03;;
9485;SDS011;4781;48.776;9.200;2023-05-02T01:54:02;8.45;;;4.87;;
9485;SDS011;4781;48.776;9.200;2023-05-02T01:56:34;7.20;;;4.90;;
9485;SDS011;4781;48.776;9.200;2023-05-02T01:59:01;7.42;;;5.25;;
9485;SDS011;4781;48.776;9.200;2023-05-02T02:01:30;7.12;;;4.92;;
9485;SDS011;4781;48.776;9.200;2023-05-02T02:03:57;6.17;;;5.05;;
9485;SDS011;4781;48.776;9.200;2023-05-02T02:06:25;8.03;;;5.15;;
9485;SDS011;4781;48.776;9.200;2023-05-02T02:08:51;6.75;;;5.15;;
9485;SDS011;4781;48.776;9.200;2023-05-02T02:11:20;8.68;;;5.35;;
9485;SDS011;4781;48.776;9.200;2023-05-02T02:13:54;6.12;;;4.85;;
9485;SDS011;4781;48.776;9.200;2023-05-02T02:16:23;7.20;;;4.92;;
9485;SDS011;4781;48.776;9.200;2023-05-02T02:18:53;8.33;;;5.30;;
9485;SDS011;4781;48.776;9.200;2023-05-02T02:21:21;7.55;;;5.33;;
9485;SDS011;4781;48.776;9.200;2023-05-02T02:23:51;8.08;;;5.12;;
9485;SDS011;4781;48.776;9.200;2023-05-02T02:26:23;6.50;;;5.30;;
9485;SDS011;4781;48.776;9.200;2023-05-02T02:28:52;6.72;;;5.15;;
9485;SDS011;4781;48.776;9.200;2023-05-02T02:31:19;6.42;;;5.47;;
9485;SDS011;4781;48.776;9.200;2023-05-02T02:33:45;6.45;;;5.33;;
9485;SDS011;4781;48.776;9.200;2023-05-02T02:36:14;6.47;;;4.92;;
9485;SDS011;4781;48.776;9.200;2023-05-02T02:41:58;7.47;;;5.50;;
9485;SDS011;4781;48.776;9.200;2023-05-02T02:44:37;7.67;;;5.17;;
9485;SDS011;4781;48.776;9.200;2023-05-02T02:47:09;7.85;;;5.30;;
9485;SDS011;4781;48.776;9.200;2023-05-02T02:52:54;7.85;;;4.90;;
9485;SDS011;4781;48.776;9.200;2023-05-02T02:55:41;7.15;;;5.37;;
9485;SDS011;4781;48.776;9.200;2023-05-02T02:58:30;6.00;;;5.22;;
9485;SDS011;4781;48.776;9.200;2023-05-02T03:01:22;6.70;;;4.97;;
9485;SDS011;4781;48.776;9.200;2023-05-02T03:03:51;8.60;;;5.12;;
9485;SDS011;4781;48.776;9.200;2023-05-02T03:06:20;6.83;;;5.45;;
9485;SDS011;4781;48.776;9.200;2023-05-02T03:08:46;6.33;;;5.08;;
9485;SDS011;4781;48.776;9.200;2023-05-02T03:11:11;7.28;;;5.22;;
9485;SDS011;4781;48.776;9.200;2023-05-02T03:13:37;7.62;;;5.30;;
9485;SDS011;4781;48.776;9.200;2023-05-02T03:16:24;11.75;;;6.15;;
9485;SDS011;4781;48.776;9.200;2023-05-02T03:19:01;8.60;;;5.28;;
9485;SDS011;4781;48.776;9.200;2023-05-02T03:21:48;8.05;;;5.92;;
9485;SDS011;4781;48.776;9.200;2023-05-02T03:24:14;7.83;;;5.80;;
9485;SDS011;4781;48.776;9.200;2023-05-02T03:26:43;8.08;;;5.78;;
9485;SDS011;4781;48.776;9.200;2023-05-02T03:29:08;7.87;;;6.03;;
9485;SDS011;4781;48.776;9.200;2023-05-02T03:31:34;6.70;;;5.50;;
9485;SDS011;4781;48.776;9.200;2023-05-02T03:34:00;9.30;;;6.85;;
9485;SDS011;4781;48.776;9.200;2023-05-02T03:36:26;7.20;;;6.00;;
9485;SDS011;4781;48.776;9.200;2023-05-02T03:38:52;7.00;;;5.80;;
9485;SDS011;4781;48.776;9.200;2023-05-02T03:41:18;6.92;;;5.50;;
9485;SDS011;4781;48.776;9.200;2023-05-02T03:43:45;8.65;;;6.35;;
9485;SDS011;4781;48.776;9.200;2023-05-02T03:46:11;7.53;;;5.50;;
9485;SDS011;4781;48.776;9.200;2023-05-02T03:48:37;8.48;;;5.95;;
9485;SDS011;4781;48.776;9.200;2023-05-02T03:51:04;7.35;;;5.87;;
9485;SDS011;4781;48.776;9.200;2023-05-02T03:53:33;7.00;;;5.67;;
9485;SDS011;4781;48.776;9.200;2023-05-02T03:55:58;7.95;;;5.87;;
9485;SDS011;4781;48.776;9.200;2023-05-02T03:58:24;7.55;;;5.42;;
9485;SDS011;4781;48.776;9.200;2023-05-02T04:00:51;7.28;;;5.67;;
9485;SDS011;4781;48.776;9.200;2023-05-02T04:03:18;7.33;;;5.55;;
9485;SDS011;4781;48.776;9.200;2023-05-02T04:05:44;7.03;;;5.28;;
9485;SDS011;4781;48.776;9.200;2023-05-02T04:08:10;6.90;;;5.72;;
9485;SDS011;4781;48.776;9.200;2023-05-02T04:10:36;7.35;;;5.70;;
9485;SDS011;4781;48.776;9.200;2023-05-02T04:13:02;7.42;;;5.80;;
9485;SDS011;4781;48.776;9.200;2023-05-02T04:15:29;7.28;;;5.50;;
9485;SDS011;4781;48.776;9.200;2023-05-02T04:18:00;7.45;;;5.80;;
9485;SDS011;4781;48.776;9.200;2023-05-02T04:20:26;8.15;;;5.97;;
9485;SDS011;4781;48.776;9.200;2023-05-02T04:22:53;7.35;;;6.00;;
9485;SDS011;4781;48.776;9.200;2023-05-02T04:25:20;10.75;;;6.97;;
9485;SDS011;4781;48.776;9.200;2023-05-02T04:27:46;8.55;;;6.08;;
9485;SDS011;4781;48.776;9.200;2023-05-02T04:30:12;7.25;;;6.10;;
9485;SDS011;4781;48.776;9.200;2023-05-02T04:32:38;7.85;;;6.00;;
9485;SDS011;4781;48.776;9.200;2023-05-02T04:35:04;9.20;;;6.20;;
9485;SDS011;4781;48.776;9.200;2023-05-02T04:37:31;7.75;;;6.00;;
9485;SDS011;4781;48.776;9.200;2023-05-02T04:39:57;8.53;;;6.40;;
9485;SDS011;4781;48.776;9.200;2023-05-02T04:42:23;9.68;;;6.25;;
9485;SDS011;4781;48.776;9.200;2023-05-02T04:44:49;7.87;;;5.65;;
9485;SDS011;4781;48.776;9.200;2023-05-02T04:47:15;8.65;;;6.33;;
9485;SDS011;4781;48.776;9.200;2023-05-02T04:49:41;8.25;;;6.42;;
9485;SDS011;4781;48.776;9.200;2023-05-02T04:52:08;8.03;;;6.50;;
9485;SDS011;4781;48.776;9.200;2023-05-02T04:54:34;9.53;;;6.62;;
9485;SDS011;4781;48.776;9.200;2023-05-02T04:57:00;9.50;;;6.33;;
9485;SDS011;4781;48.776;9.200;2023-05-02T04:59:30;8.98;;;6.70;;
9485;SDS011;4781;48.776;9.200;2023-05-02T05:01:56;9.58;;;6.80;;
9485;SDS011;4781;48.776;9.200;2023-05-02T05:04:23;9.73;;;6.62;;
9485;SDS011;4781;48.776;9.200;2023-05-02T05:06:49;8.40;;;6.20;;
9485;SDS011;4781;48.776;9.200;2023-05-02T05:09:15;10.20;;;7.00;;
9485;SDS011;4781;48.776;9.200;2023-05-02T05:11:40;8.28;;;6.92;;
9485;SDS011;4781;48.776;9.200;2023-05-02T05:14:15;9.15;;;6.70;;
9485;SDS011;4781;48.776;9.200;2023-05-02T05:16:38;9.88;;;7.10;;
9485;SDS011;4781;48.776;9.200;2023-05-02T05:19:04;8.43;;;6.87;;
9485;SDS011;4781;48.776;9.200;2023-05-02T05:21:30;10.13;;;6.53;;
9485;SDS011;4781;48.776;9.200;2023-05-02T05:23:55;8.18;;;6.72;;
9485;SDS011;4781;48.776;9.200;2023-05-02T05:26:21;9.40;;;7.03;;
9485;SDS011;4781;48.776;9.200;2023-05-02T05:28:49;9.23;;;7.17;;
9485;SDS011;4781;48.776;9.200;2023-05-02T05:31:15;10.05;;;7.20;;
9485;SDS011;4781;48.776;9.200;2023-05-02T05:33:41;8.58;;;6.80;;
9485;SDS011;4781;48.776;9.200;2023-05-02T05:36:08;8.58;;;7.20;;
9485;SDS011;4781;48.776;9.200;2023-05-02T05:38:36;8.20;;;7.00;;
9485;SDS011;4781;48.776;9.200;2023-05-02T05:41:03;9.53;;;7.10;;
9485;SDS011;4781;48.776;9.200;2023-05-02T05:43:35;8.93;;;7.58;;
9485;SDS011;4781;48.776;9.200;2023-05-02T05:46:02;8.65;;;6.90;;
9485;SDS011;4781;48.776;9.200;2023-05-02T05:48:28;9.50;;;7.50;;
9485;SDS011;4781;48.776;9.200;2023-05-02T05:50:53;9.38;;;8.33;;
9485;SDS011;4781;48.776;9.200;2023-05-02T05:53:19;9.58;;;7.30;;
9485;SDS011;4781;48.776;9.200;2023-05-02T05:55:45;11.90;;;8.38;;
9485;SDS011;4781;48.776;9.200;2023-05-02T05:58:11;11.35;;;8.98;;
9485;SDS011;4781;48.776;9.200;2023-05-02T06:00:38;12.63;;;9.80;;
9485;SDS011;4781;48.776;9.200;2023-05-02T06:03:05;12.85;;;9.13;;
9485;SDS011;4781;48.776;9.200;2023-05-02T06:05:31;10.60;;;8.88;;
9485;SDS011;4781;48.776;9.200;2023-05-02T06:07:58;12.73;;;9.18;;
9485;SDS011;4781;48.776;9.200;2023-05-02T06:10:24;11.93;;;9.35;;
9485;SDS011;4781;48.776;9.200;2023-05-02T06:12:50;11.25;;;9.93;;
9485;SDS011;4781;48.776;9.200;2023-05-02T06:15:16;12.78;;;9.55;;
9485;SDS011;4781;48.776;9.200;2023-05-02T06:17:42;12.65;;;10.32;;
9485;SDS011;4781;48.776;9.200;2023-05-02T06:20:08;13.18;;;10.13;;
9485;SDS011;4781;48.776;9.200;2023-05-02T06:22:34;13.30;;;10.20;;
9485;SDS011;4781;48.776;9.200;2023-05-02T06:25:01;13.48;;;10.30;;
9485;SDS011;4781;48.776;9.200;2023-05-02T06:27:29;14.05;;;11.30;;
9485;SDS011;4781;48.776;9.200;2023-05-02T06:29:55;13.88;;;12.00;;
9485;SDS011;4781;48.776;9.200;2023-05-02T06:32:21;14.58;;;11.80;;
9485;SDS011;4781;48.776;9.200;2023-05-02T06:34:47;12.47;;;11.15;;
9485;SDS011;4781;48.776;9.200;2023-05-02T06:37:13;14.87;;;12.60;;
9485;SDS011;4781;48.776;9.200;2023-05-02T06:39:38;16.75;;;13.00;;
9485;SDS011;4781;48.776;9.200;2023-05-02T06:42:04;14.50;;;12.35;;
9485;SDS011;4781;48.776;9.200;2023-05-02T06:44:30;17.60;;;13.30;;
9485;SDS011;4781;48.776;9.200;2023-05-02T06:47:01;17.40;;;14.50;;
9485;SDS011;4781;48.776;9.200;2023-05-02T06:49:24;16.85;;;13.75;;
9485;SDS011;4781;48.776;9.200;2023-05-02T06:51:50;15.88;;;13.83;;
9485;SDS011;4781;48.776;9.200;2023-05-02T06:54:17;16.27;;;14.13;;
9485;SDS011;4781;48.776;9.200;2023-05-02T06:56:42;18.37;;;16.32;;
9485;SDS011;4781;48.776;9.200;2023-05-02T06:59:08;17.48;;;15.32;;
9485;SDS011;4781;48.776;9.200;2023-05-02T07:01:34;18.35;;;15.90;;
9485;SDS011;4781;48.776;9.200;2023-05-02T07:04:00;18.27;;;16.17;;
9485;SDS011;4781;48.776;9.200;2023-05-02T07:06:30;19.87;;;16.40;;
9485;SDS011;4781;48.776;9.200;2023-05-02T07:08:59;18.98;;;15.15;;
9485;SDS011;4781;48.776;9.200;2023-05-02T07:11:25;18.67;;;15.45;;
9485;SDS011;4781;48.776;9.200;2023-05-02T07:13:52;18.67;;;15.72;;
9485;SDS011;4781;48.776;9.200;2023-05-02T07:16:18;19.70;;;15.28;;
9485;SDS011;4781;48.776;9.200;2023-05-02T07:18:44;21.70;;;16.65;;
9485;SDS011;4781;48.776;9.200;2023-05-02T07:21:11;17.12;;;15.23;;
9485;SDS011;4781;48.776;9.200;2023-05-02T07:23:37;20.75;;;17.57;;
9485;SDS011;4781;48.776;9.200;2023-05-02T07:26:03;18.30;;;16.40;;
9485;SDS011;4781;48.776;9.200;2023-05-02T07:28:29;18.12;;;15.93;;
9485;SDS011;4781;48.776;9.200;2023-05-02T07:30:56;18.35;;;16.42;;
9485;SDS011;4781;48.776;9.200;2023-05-02T07:33:22;18.37;;;16.37;;
9485;SDS011;4781;48.776;9.200;2023-05-02T07:35:49;20.08;;;17.75;;
9485;SDS011;4781;48.776;9.200;2023-05-02T07:38:15;21.93;;;18.35;;
9485;SDS011;4781;48.776;9.200;2023-05-02T07:40:41;24.37;;;18.45;;
9485;SDS011;4781;48.776;9.200;2023-05-02T07:43:09;21.12;;;18.92;;
9485;SDS011;4781;48.776;9.200;2023-05-02T07:45:35;22.58;;;19.65;;
9485;SDS011;4781;48.776;9.200;2023-05-02T07:48:01;20.60;;;18.30;;
9485;SDS011;4781;48.776;9.200;2023-05-02T07:50:28;23.35;;;20.85;;
9485;SDS011;4781;48.776;9.200;2023-05-02T07:52:54;24.10;;;21.12;;
9485;SDS011;4781;48.776;9.200;2023-05-02T07:55:25;24.55;;;21.15;;
9485;SDS011;4781;48.776;9.200;2023-05-02T07:57:51;23.65;;;21.15;;
9485;SDS011;4781;48.776;9.200;2023-05-02T08:00:17;24.30;;;21.42;;
9485;SDS011;4781;48.776;9.200;2023-05-02T08:02:44;27.05;;;22.80;;
9485;SDS011;4781;48.776;9.200;2023-05-02T08:05:10;26.27;;;21.57;;
9485;SDS011;4781;48.776;9.200;2023-05-02T08:07:36;29.50;;;23.00;;
9485;SDS011;4781;48.776;9.200;2023-05-02T08:10:02;25.72;;;22.98;;
9485;SDS011;4781;48.776;9.200;2023-05-02T08:12:30;28.62;;;24.02;;
9485;SDS011;4781;48.776;9.200;2023-05-02T08:14:55;27.10;;;22.55;;
9485;SDS011;4781;48.776;9.200;2023-05-02T08:17:21;24.52;;;21.97;;
9485;SDS011;4781;48.776;9.200;2023-05-02T08:19:47;26.62;;;23.12;;
9485;SDS011;4781;48.776;9.200;2023-05-02T08:22:13;26.15;;;22.60;;
9485;SDS011;4781;48.776;9.200;2023-05-02T08:24:39;32.88;;;23.73;;
9485;SDS011;4781;48.776;9.200;2023-05-02T08:27:05;27.85;;;24.32;;
9485;SDS011;4781;48.776;9.200;2023-05-02T08:29:31;26.50;;;23.65;;
9485;SDS011;4781;48.776;9.200;2023-05-02T08:32:01;29.77;;;25.92;;
9485;SDS011;4781;48.776;9.200;2023-05-02T08:34:27;27.73;;;24.43;;
9485;SDS011;4781;48.776;9.200;2023-05-02T08:36:52;29.05;;;25.12;;
9485;SDS011;4781;48.776;9.200;2023-05-02T08:39:18;27.87;;;24.60;;
9485;SDS011;4781;48.776;9.200;2023-05-02T08:41:44;29.18;;;25.45;;
9485;SDS011;4781;48.776;9.200;2023-05-02T08:44:10;31.95;;;27.27;;
9485;SDS011;4781;48.776;9.200;2023-05-02T08:46:36;27.50;;;24.65;;
9485;SDS011;4781;48.776;9.200;2023-05-02T08:49:05;28.47;;;25.00;;
9485;SDS011;4781;48.776;9.200;2023-05-02T08:51:37;29.35;;;25.72;;
9485;SDS011;4781;48.776;9.200;2023-05-02T08:54:04;29.63;;;24.65;;
9485;SDS011;4781;48.776;9.200;2023-05-02T08:56:32;31.45;;;25.25;;
9485;SDS011;4781;48.776;9.200;2023-05-02T08:58:57;27.42;;;24.52;;
9485;SDS011;4781;48.776;9.200;2023-05-02T09:01:23;28.45;;;24.23;;
9485;SDS011;4781;48.776;9.200;2023-05-02T09:03:54;27.25;;;24.25;;
9485;SDS011;4781;48.776;9.200;2023-05-02T09:06:24;27.37;;;23.80;;
9485;SDS011;4781;48.776;9.200;2023-05-02T09:08:52;27.27;;;24.25;;
9485;SDS011;4781;48.776;9.200;2023-05-02T09:11:18;26.10;;;22.95;;
9485;SDS011;4781;48.776;9.200;2023-05-02T09:13:49;27.40;;;24.43;;
9485;SDS011;4781;48.776;9.200;2023-05-02T09:16:39;28.10;;;23.77;;
9485;SDS011;4781;48.776;9.200;2023-05-02T09:19:05;27.77;;;23.75;;
9485;SDS011;4781;48.776;9.200;2023-05-02T09:21:35;28.45;;;25.10;;
9485;SDS011;4781;48.776;9.200;2023-05-02T09:24:20;26.17;;;23.38;;
9485;SDS011;4781;48.776;9.200;2023-05-02T09:27:00;27.80;;;23.57;;
9485;SDS011;4781;48.776;9.200;2023-05-02T09:29:28;27.37;;;24.32;;
9485;SDS011;4781;48.776;9.200;2023-05-02T09:31:58;26.70;;;23.73;;
9485;SDS011;4781;48.776;9.200;2023-05-02T09:34:24;25.30;;;22.62;;
9485;SDS011;4781;48.776;9.200;2023-05-02T09:36:50;26.20;;;21.82;;
9485;SDS011;4781;48.776;9.200;2023-05-02T09:39:25;24.75;;;22.05;;
9485;SDS011;4781;48.776;9.200;2023-05-02T09:41:55;27.25;;;22.60;;
9485;SDS011;4781;48.776;9.200;2023-05-02T09:44:23;25.05;;;22.13;;
9485;SDS011;4781;48.776;9.200;2023-05-02T09:46:53;26.17;;;23.20;;
9485;SDS011;4781;48.776;9.200;2023-05-02T09:49:38;27.40;;;21.85;;
9485;SDS011;4781;48.776;9.200;2023-05-02T09:54:40;27.35;;;23.00;;
9485;SDS011;4781;48.776;9.200;2023-05-02T09:57:06;26.10;;;23.32;;
9485;SDS011;4781;48.776;9.200;2023-05-02T09:59:35;25.95;;;23.15;;
9485;SDS011;4781;48.776;9.200;2023-05-02T10:02:01;28.92;;;24.90;;
9485;SDS011;4781;48.776;9.200;2023-05-02T10:04:30;26.12;;;22.85;;
9485;SDS011;4781;48.776;9.200;2023-05-02T10:06:57;27.13;;;24.25;;
9485;SDS011;4781;48.776;9.200;2023-05-02T10:09:29;26.30;;;22.13;;
9485;SDS011;4781;48.776;9.200;2023-05-02T10:11:57;27.62;;;23.98;;
9485;SDS011;4781;48.776;9.200;2023-05-02T10:14:38;26.75;;;23.70;;
9485;SDS011;4781;48.776;9.200;2023-05-02T10:17:13;26.62;;;23.47;;
9485;SDS011;4781;48.776;9.200;2023-05-02T10:19:58;25.60;;;22.90;;
9485;SDS011;4781;48.776;9.200;2023-05-02T10:22:32;27.48;;;21.93;;
9485;SDS011;4781;48.776;9.200;2023-05-02T10:24:59;25.25;;;21.95;;
9485;SDS011;4781;48.776;9.200;2023-05-02T10:27:30;25.62;;;21.90;;
9485;SDS011;4781;48.776;9.200;2023-05-02T10:29:57;26.80;;;23.70;;
9485;SDS011;4781;48.776;9.200;2023-05-02T10:32:27;25.45;;;22.13;;
9485;SDS011;4781;48.776;9.200;2023-05-02T10:34:57;23.55;;;21.05;;
9485;SDS011;4781;48.776;9.200;2023-05-02T10:37:29;21.85;;;19.62;;
9485;SDS011;4781;48.776;9.200;2023-05-02T10:40:00;23.55;;;21.15;;
9485;SDS011;4781;48.776;9.200;2023-05-02T10:42:27;26.15;;;21.23;;
9485;SDS011;4781;48.776;9.200;2023-05-02T10:44:54;23.20;;;20.77;;
9485;SDS011;4781;48.776;9.200;2023-05-02T10:47:21;23.65;;;19.85;;
9485;SDS011;4781;48.776;9.200;2023-05-02T10:49:52;23.20;;;19.32;;
9485;SDS011;4781;48.776;9.200;2023-05-02T11:00:32;19.95;;;17.35;;
9485;SDS011;4781;48.776;9.200;2023-05-02T11:02:59;22.05;;;16.55;;
9485;SDS011;4781;48.776;9.200;2023-05-02T11:05:27;17.75;;;15.85;;
9485;SDS011;4781;48.776;9.200;2023-05-02T11:10:45;20.90;;;16.27;;
9485;SDS011;4781;48.776;9.200;2023-05-02T11:13:11;19.20;;;15.40;;
9485;SDS011;4781;48.776;9.200;2023-05-02T11:18:12;14.90;;;13.03;;
9485;SDS011;4781;48.776;9.200;2023-05-02T11:20:39;17.02;;;15.23;;
9485;SDS011;4781;48.776;9.200;2023-05-02T11:25:52;18.48;;;15.88;;
9485;SDS011;4781;48.776;9.200;2023-05-02T11:31:09;18.02;;;14.80;;
9485;SDS011;4781;48.776;9.200;2023-05-02T11:33:35;16.02;;;14.28;;
9485;SDS011;4781;48.776;9.200;2023-05-02T11:36:03;20.10;;;15.90;;
9485;SDS011;4781;48.776;9.200;2023-05-02T11:38:37;19.70;;;16.73;;
9485;SDS011;4781;48.776;9.200;2023-05-02T11:41:02;18.05;;;15.50;;
9485;SDS011;4781;48.776;9.200;2023-05-02T11:43:28;19.35;;;16.37;;
9485;SDS011;4781;48.776;9.200;2023-05-02T11:45:55;19.70;;;16.87;;
9485;SDS011;4781;48.776;9.200;2023-05-02T11:48:24;19.27;;;16.48;;
9485;SDS011;4781;48.776;9.200;2023-05-02T11:50:58;19.70;;;17.15;;
9485;SDS011;4781;48.776;9.200;2023-05-02T11:53:26;17.77;;;14.45;;
9485;SDS011;4781;48.776;9.200;2023-05-02T11:55:55;20.97;;;16.07;;
9485;SDS011;4781;48.776;9.200;2023-05-02T11:58:28;18.30;;;15.75;;
9485;SDS011;4781;48.776;9.200;2023-05-02T12:00:57;19.42;;;16.07;;
9485;SDS011;4781;48.776;9.200;2023-05-02T12:03:30;21.33;;;17.60;;
9485;SDS011;4781;48.776;9.200;2023-05-02T12:06:13;22.10;;;18.30;;
9485;SDS011;4781;48.776;9.200;2023-05-02T12:11:11;23.65;;;18.40;;
9485;SDS011;4781;48.776;9.200;2023-05-02T12:13:47;20.68;;;18.50;;
9485;SDS011;4781;48.776;9.200;2023-05-02T12:16:14;21.20;;;17.73;;
9485;SDS011;4781;48.776;9.200;2023-05-02T12:18:41;21.27;;;17.75;;
9485;SDS011;4781;48.776;9.200;2023-05-02T12:21:07;17.95;;;16.02;;
9485;SDS011;4781;48.776;9.200;2023-05-02T12:23:33;18.48;;;16.48;;
9485;SDS011;4781;48.776;9.200;2023-05-02T12:26:09;21.48;;;18.05;;
9485;SDS011;4781;48.776;9.200;2023-05-02T12:28:52;25.97;;;19.80;;
9485;SDS011;4781;48.776;9.200;2023-05-02T12:31:19;21.68;;;19.37;;
9485;SDS011;4781;48.776;9.200;2023-05-02T12:33:45;21.05;;;18.82;;
9485;SDS011;4781;48.776;9.200;2023-05-02T12:36:17;24.92;;;22.13;;
9485;SDS011;4781;48.776;9.200;2023-05-02T12:38:50;27.10;;;23.07;;
9485;SDS011;4781;48.776;9.200;2023-05-02T12:41:17;29.23;;;24.00;;
9485;SDS011;4781;48.776;9.200;2023-05-02T12:43:46;26.97;;;22.20;;
9485;SDS011;4781;48.776;9.200;2023-05-02T12:46:15;25.80;;;22.20;;
9485;SDS011;4781;48.776;9.200;2023-05-02T12:48:41;28.40;;;23.20;;
9485;SDS011;4781;48.776;9.200;2023-05-02T12:51:19;29.37;;;23.45;;
9485;SDS011;4781;48.776;9.200;2023-05-02T12:53:47;28.62;;;23.67;;
9485;SDS011;4781;48.776;9.200;2023-05-02T12:56:13;27.95;;;24.63;;
9485;SDS011;4781;48.776;9.200;2023-05-02T12:58:41;26.70;;;22.75;;
9485;SDS011;4781;48.776;9.200;2023-05-02T13:01:12;26.23;;;22.48;;
9485;SDS011;4781;48.776;9.200;2023-05-02T13:03:39;24.85;;;21.35;;
9485;SDS011;4781;48.776;9.200;2023-05-02T13:06:06;26.57;;;22.42;;
9485;SDS011;4781;48.776;9.200;2023-05-02T13:08:33;26.97;;;20.88;;
9485;SDS011;4781;48.776;9.200;2023-05-02T13:11:00;24.90;;;20.32;;
9485;SDS011;4781;48.776;9.200;2023-05-02T13:13:27;23.98;;;19.95;;
9485;SDS011;4781;48.776;9.200;2023-05-02T13:15:54;18.57;;;16.23;;
9485;SDS011;4781;48.776;9.200;2023-05-02T13:18:20;22.48;;;18.25;;
9485;SDS011;4781;48.776;9.200;2023-05-02T13:20:46;21.42;;;18.67;;
9485;SDS011;4781;48.776;9.200;2023-05-02T13:23:12;20.65;;;17.48;;
9485;SDS011;4781;48.776;9.200;2023-05-02T13:25:38;22.37;;;18.52;;
9485;SDS011;4781;48.776;9.200;2023-05-02T13:28:04;22.13;;;18.92;;
9485;SDS011;4781;48.776;9.200;2023-05-02T13:30:30;24.25;;;19.30;;
9485;SDS011;4781;48.776;9.200;2023-05-02T13:32:56;21.75;;;18.05;;
9485;SDS011;4781;48.776;9.200;2023-05-02T13:35:27;19.92;;;16.95;;
9485;SDS011;4781;48.776;9.200;2023-05-02T13:37:50;20.00;;;16.85;;
9485;SDS011;4781;48.776;9.200;2023-05-02T13:40:16;20.70;;;17.27;;
9485;SDS011;4781;48.776;9.200;2023-05-02T13:42:43;19.17;;;16.17;;
9485;SDS011;4781;48.776;9.200;2023-05-02T13:45:09;19.40;;;16.80;;
9485;SDS011;4781;48.776;9.200;2023-05-02T13:47:35;19.57;;;15.95;;
9485;SDS011;4781;48.776;9.200;2023-05-02T13:50:01;21.40;;;16.65;;
9485;SDS011;4781;48.776;9.200;2023-05-02T13:52:27;20.43;;;15.90;;
9485;SDS011;4781;48.776;9.200;2023-05-02T13:54:53;20.65;;;15.08;;
9485;SDS011;4781;48.776;9.200;2023-05-02T13:57:19;16.35;;;14.47;;
9485;SDS011;4781;48.776;9.200;2023-05-02T13:59:45;15.53;;;13.30;;
9485;SDS011;4781;48.776;9.200;2023-05-02T14:02:11;18.95;;;14.53;;
9485;SDS011;4781;48.776;9.200;2023-05-02T14:04:36;17.48;;;14.98;;
9485;SDS011;4781;48.776;9.200;2023-05-02T14:07:02;16.10;;;13.55;;
9485;SDS011;4781;48.776;9.200;2023-05-02T14:09:29;16.30;;;13.72;;
9485;SDS011;4781;48.776;9.200;2023-05-02T14:11:55;18.23;;;13.78;;
9485;SDS011;4781;48.776;9.200;2023-05-02T14:14:23;15.70;;;13.88;;
9485;SDS011;4781;48.776;9.200;2023-05-02T14:16:49;18.15;;;14.65;;
9485;SDS011;4781;48.776;9.200;2023-05-02T14:19:14;16.73;;;14.05;;
9485;SDS011;4781;48.776;9.200;2023-05-02T14:21:40;18.02;;;14.83;;
9485;SDS011;4781;48.776;9.200;2023-05-02T14:24:06;18.62;;;15.65;;
9485;SDS011;4781;48.776;9.200;2023-05-02T14:26:32;16.73;;;14.23;;
9485;SDS011;4781;48.776;9.200;2023-05-02T14:29:02;14.60;;;12.15;;
9485;SDS011;4781;48.776;9.200;2023-05-02T14:31:28;11.80;;;9.35;;
9485;SDS011;4781;48.776;9.200;2023-05-02T14:33:54;17.87;;;11.57;;
9485;SDS011;4781;48.776;9.200;2023-05-02T14:36:20;16.77;;;11.75;;
9485;SDS011;4781;48.776;9.200;2023-05-02T14:38:46;14.35;;;10.72;;
9485;SDS011;4781;48.776;9.200;2023-05-02T14:41:12;15.48;;;10.10;;
9485;SDS011;4781;48.776;9.200;2023-05-02T14:43:37;13.10;;;9.50;;
9485;SDS011;4781;48.776;9.200;2023-05-02T14:46:03;13.68;;;10.63;;
9485;SDS011;4781;48.776;9.200;2023-05-02T14:48:30;12.35;;;9.83;;
9485;SDS011;4781;48.776;9.200;2023-05-02T14:50:56;11.97;;;9.60;;
9485;SDS011;4781;48.776;9.200;2023-05-02T14:53:24;12.58;;;9.78;;
9485;SDS011;4781;48.776;9.200;2023-05-02T14:55:50;14.33;;;10.15;;
9485;SDS011;4781;48.776;9.200;2023-05-02T14:58:16;16.07;;;10.80;;
9485;SDS011;4781;48.776;9.200;2023-05-02T15:00:44;12.30;;;9.50;;
9485;SDS011;4781;48.776;9.200;2023-05-02T15:03:11;12.23;;;9.38;;
9485;SDS011;4781;48.776;9.200;2023-05-02T15:05:37;11.63;;;9.33;;
9485;SDS011;4781;48.776;9.200;2023-05-02T15:08:03;16.15;;;8.83;;
9485;SDS011;4781;48.776;9.200;2023-05-02T15:10:30;10.30;;;7.60;;
9485;SDS011;4781;48.776;9.200;2023-05-02T15:12:57;13.68;;;10.32;;
9485;SDS011;4781;48.776;9.200;2023-05-02T15:15:23;14.50;;;10.43;;
9485;SDS011;4781;48.776;9.200;2023-05-02T15:17:50;12.88;;;9.78;;
9485;SDS011;4781;48.776;9.200;2023-05-02T15:20:17;16.42;;;10.93;;
9485;SDS011;4781;48.776;9.200;2023-05-02T15:22:43;12.40;;;10.00;;
9485;SDS011;4781;48.776;9.200;2023-05-02T15:25:09;12.03;;;9.20;;
9485;SDS011;4781;48.776;9.200;2023-05-02T15:27:35;10.80;;;8.90;;
9485;SDS011;4781;48.776;9.200;2023-05-02T15:30:01;14.23;;;9.93;;
9485;SDS011;4781;48.776;9.200;2023-05-02T15:32:28;11.75;;;8.75;;
9485;SDS011;4781;48.776;9.200;2023-05-02T15:34:54;13.22;;;9.78;;
9485;SDS011;4781;48.776;9.200;2023-05-02T15:37:20;15.20;;;9.38;;
9485;SDS011;4781;48.776;9.200;2023-05-02T15:39:46;15.32;;;10.95;;
9485;SDS011;4781;48.776;9.200;2023-05-02T15:42:12;16.07;;;8.98;;
9485;SDS011;4781;48.776;9.200;2023-05-02T15:44:38;11.60;;;8.15;;
9485;SDS011;4781;48.776;9.200;2023-05-02T15:47:04;9.48;;;7.00;;